sensor_id;sensor_type;location;lat;lon;timestamp;pressure;altitude;pressure_sealevel;temperature;humidity
80869;BME280;70295;40.182;44.498;2023-07-08T00:00:32;89570.88;;;26.12;36.96211
80869;BME280;70295;40.182;44.498;2023-07-08T00:02:32;89559.84;;;26.09;37.0168
80869;BME280;70295;40.182;44.498;2023-07-08T00:04:32;89559.85;;;26.09;37.0168
80869;BME280;70295;40.182;44.498;2023-07-08T00:06:32;89552.94;;;26.07;37.01387
80869;BME280;70295;40.182;44.498;2023-07-08T00:08:31;89549.13;;;26.04;37.01289
80869;BME280;70295;40.182;44.498;2023-07-08T00:10:32;89547.64;;;25.98;37.05391
80869;BME280;70295;40.182;44.498;2023-07-08T00:12:32;89542.83;;;25.95;37.10762
80869;BME280;70295;40.182;44.498;2023-07-08T00:14:32;89540.59;;;25.93;37.10664
80869;BME280;70295;40.182;44.498;2023-07-08T00:16:32;89542.3;;;25.93;37.10566
80869;BME280;70295;40.182;44.498;2023-07-08T00:22:31;89542.67;;;25.92;37.10566
80869;BME280;70295;40.182;44.498;2023-07-08T00:24:32;89538.8;;;25.89;37.16035
80869;BME280;70295;40.182;44.498;2023-07-08T00:26:32;89541.44;;;25.88;37.20527
80869;BME280;70295;40.182;44.498;2023-07-08T00:28:31;89547.74;;;25.86;37.2043
80869;BME280;70295;40.182;44.498;2023-07-08T00:30:32;89549.03;;;25.84;37.2834
80869;BME280;70295;40.182;44.498;2023-07-08T00:32:31;89549.25;;;25.84;37.30488
80869;BME280;70295;40.182;44.498;2023-07-08T00:34:31;89552.63;;;25.87;37.28535
80869;BME280;70295;40.182;44.498;2023-07-08T00:36:32;89556.67;;;25.86;37.26191
80869;BME280;70295;40.182;44.498;2023-07-08T00:38:31;89554.75;;;25.83;37.32832
80869;BME280;70295;40.182;44.498;2023-07-08T00:40:32;89556.73;;;25.82;37.42988
80869;BME280;70295;40.182;44.498;2023-07-08T00:42:32;89553.39;;;25.84;37.45527
80869;BME280;70295;40.182;44.498;2023-07-08T00:44:31;89555.47;;;25.86;37.47871
80869;BME280;70295;40.182;44.498;2023-07-08T00:46:34;89552.28;;;25.85;37.55879
80869;BME280;70295;40.182;44.498;2023-07-08T00:48:33;89551.16;;;25.83;37.64863
80869;BME280;70295;40.182;44.498;2023-07-08T00:50:32;89552.42;;;25.79;37.74824
80869;BME280;70295;40.182;44.498;2023-07-08T00:52:33;89550.11;;;25.76;37.80293
80869;BME280;70295;40.182;44.498;2023-07-08T00:54:32;89545.8;;;25.77;37.80488
80869;BME280;70295;40.182;44.498;2023-07-08T00:58:37;89551.92;;;25.82;37.75117
80869;BME280;70295;40.182;44.498;2023-07-08T01:00:32;89546.55;;;25.83;37.68379
80869;BME280;70295;40.182;44.498;2023-07-08T01:02:33;89548.18;;;25.86;37.61738
80869;BME280;70295;40.182;44.498;2023-07-08T01:06:32;89543.27;;;25.87;37.53828
80869;BME280;70295;40.182;44.498;2023-07-08T01:08:32;89543.42;;;25.88;37.51484
80869;BME280;70295;40.182;44.498;2023-07-08T01:10:37;89541.95;;;25.86;37.51387
80869;BME280;70295;40.182;44.498;2023-07-08T01:14:32;89541.77;;;25.84;37.4543
80869;BME280;70295;40.182;44.498;2023-07-08T01:16:31;89543.23;;;25.84;37.43184
80869;BME280;70295;40.182;44.498;2023-07-08T01:18:31;89544.41;;;25.85;37.38691
80869;BME280;70295;40.182;44.498;2023-07-08T01:20:31;89544.17;;;25.88;37.30879
80869;BME280;70295;40.182;44.498;2023-07-08T01:22:33;89538.61;;;25.87;37.27363
80869;BME280;70295;40.182;44.498;2023-07-08T01:24:32;89541.33;;;25.87;37.20527
80869;BME280;70295;40.182;44.498;2023-07-08T01:26:32;89541.05;;;25.88;37.21699
80869;BME280;70295;40.182;44.498;2023-07-08T01:28:31;89539.93;;;25.88;37.24043
80869;BME280;70295;40.182;44.498;2023-07-08T01:30:31;89543.77;;;25.88;37.11445
80869;BME280;70295;40.182;44.498;2023-07-08T01:32:32;89541.98;;;25.88;37.12519
80869;BME280;70295;40.182;44.498;2023-07-08T01:34:32;89542.61;;;25.87;37.22773
80869;BME280;70295;40.182;44.498;2023-07-08T01:36:34;89547.7;;;25.87;37.23945
80869;BME280;70295;40.182;44.498;2023-07-08T01:38:32;89549.17;;;25.87;37.26289
80869;BME280;70295;40.182;44.498;2023-07-08T01:40:32;89550.83;;;25.87;37.30781
80869;BME280;70295;40.182;44.498;2023-07-08T01:42:31;89551.02;;;25.86;37.26191
80869;BME280;70295;40.182;44.498;2023-07-08T01:44:33;89560.36;;;25.86;37.28437
80869;BME280;70295;40.182;44.498;2023-07-08T01:46:31;89558.11;;;25.85;37.36348
80869;BME280;70295;40.182;44.498;2023-07-08T01:48:33;89561.51;;;25.81;37.45234
80869;BME280;70295;40.182;44.498;2023-07-08T01:50:32;89565.23;;;25.8;37.5207
80869;BME280;70295;40.182;44.498;2023-07-08T01:52:31;89559.75;;;25.78;37.57637
80869;BME280;70295;40.182;44.498;2023-07-08T01:54:31;89560.59;;;25.75;37.64277
80869;BME280;70295;40.182;44.498;2023-07-08T01:56:31;89561.66;;;25.69;37.76289
80869;BME280;70295;40.182;44.498;2023-07-08T01:58:31;89557.61;;;25.63;37.85078
80869;BME280;70295;40.182;44.498;2023-07-08T02:00:31;89561.69;;;25.6;37.92793
80869;BME280;70295;40.182;44.498;2023-07-08T02:02:31;89562.88;;;25.54;37.99141
80869;BME280;70295;40.182;44.498;2023-07-08T02:04:32;89571;;;25.53;38.03633
80869;BME280;70295;40.182;44.498;2023-07-08T02:06:31;89564.11;;;25.54;38.07148
80869;BME280;70295;40.182;44.498;2023-07-08T02:08:31;89564.3;;;25.59;38.07539
80869;BME280;70295;40.182;44.498;2023-07-08T02:10:31;89558.44;;;25.64;38.03437
80869;BME280;70295;40.182;44.498;2023-07-08T02:12:31;89561.73;;;25.68;37.98066
80869;BME280;70295;40.182;44.498;2023-07-08T02:14:31;89560.23;;;25.71;37.93672
80869;BME280;70295;40.182;44.498;2023-07-08T02:16:31;89560.28;;;25.74;37.84883
80869;BME280;70295;40.182;44.498;2023-07-08T02:18:31;89558.39;;;25.75;37.78047
80869;BME280;70295;40.182;44.498;2023-07-08T02:20:32;89561.8;;;25.78;37.65547
80869;BME280;70295;40.182;44.498;2023-07-08T02:22:31;89561.51;;;25.81;37.55586
80869;BME280;70295;40.182;44.498;2023-07-08T02:24:31;89562.02;;;25.84;37.56953
80869;BME280;70295;40.182;44.498;2023-07-08T02:26:31;89556.48;;;25.87;37.56074
80869;BME280;70295;40.182;44.498;2023-07-08T02:28:31;89552.52;;;25.88;37.48164
80869;BME280;70295;40.182;44.498;2023-07-08T02:30:32;89552.52;;;25.88;37.5041
80869;BME280;70295;40.182;44.498;2023-07-08T02:32:31;89549.25;;;25.88;37.44746
80869;BME280;70295;40.182;44.498;2023-07-08T02:34:31;89553.29;;;25.88;37.43476
80869;BME280;70295;40.182;44.498;2023-07-08T02:36:33;89557.53;;;25.89;37.425
80869;BME280;70295;40.182;44.498;2023-07-08T02:38:31;89556.38;;;25.92;37.49629
80869;BME280;70295;40.182;44.498;2023-07-08T02:40:31;89560.75;;;25.94;37.57832
80869;BME280;70295;40.182;44.498;2023-07-08T02:42:31;89557.63;;;25.97;37.48848
80869;BME280;70295;40.182;44.498;2023-07-08T02:44:32;89555.05;;;25.97;37.43086
80869;BME280;70295;40.182;44.498;2023-07-08T02:46:31;89558.63;;;25.98;37.36348
80869;BME280;70295;40.182;44.498;2023-07-08T02:48:31;89562.34;;;25.99;37.39863
80869;BME280;70295;40.182;44.498;2023-07-08T02:50:31;89561.62;;;26.01;37.4123
80869;BME280;70295;40.182;44.498;2023-07-08T02:52:31;89568.63;;;26.02;37.34394
80869;BME280;70295;40.182;44.498;2023-07-08T02:54:32;89569.88;;;26.07;37.32539
80869;BME280;70295;40.182;44.498;2023-07-08T02:56:31;89572.25;;;26.13;37.29609
80869;BME280;70295;40.182;44.498;2023-07-08T02:58:31;89576.13;;;26.21;37.29121
80869;BME280;70295;40.182;44.498;2023-07-08T03:00:31;89578;;;26.31;37.28828
80869;BME280;70295;40.182;44.498;2023-07-08T03:02:31;89578.25;;;26.45;37.17305
80869;BME280;70295;40.182;44.498;2023-07-08T03:04:32;89583.9;;;26.62;36.80781
80869;BME280;70295;40.182;44.498;2023-07-08T03:06:31;89580.37;;;26.75;36.57734
80869;BME280;70295;40.182;44.498;2023-07-08T03:08:32;89581.81;;;26.9;36.50898
80869;BME280;70295;40.182;44.498;2023-07-08T03:10:32;89585.3;;;27.04;36.42891
80869;BME280;70295;40.182;44.498;2023-07-08T03:12:32;89585.56;;;27.17;36.20918
80869;BME280;70295;40.182;44.498;2023-07-08T03:14:31;89585.14;;;27.32;35.99141
80869;BME280;70295;40.182;44.498;2023-07-08T03:16:32;89583.88;;;27.46;35.6916
80869;BME280;70295;40.182;44.498;2023-07-08T03:18:31;89585.05;;;27.59;35.48359
80869;BME280;70295;40.182;44.498;2023-07-08T03:20:31;89584.45;;;27.72;35.22871
80869;BME280;70295;40.182;44.498;2023-07-08T03:22:32;89584.97;;;27.85;35.01973
80869;BME280;70295;40.182;44.498;2023-07-08T03:24:31;89582.84;;;27.96;34.94746
80869;BME280;70295;40.182;44.498;2023-07-08T03:26:31;89583.95;;;28.06;34.92109
80869;BME280;70295;40.182;44.498;2023-07-08T03:28:31;89581.55;;;28.18;34.66523
80869;BME280;70295;40.182;44.498;2023-07-08T03:30:32;89584.21;;;28.31;34.40937
80869;BME280;70295;40.182;44.498;2023-07-08T03:32:31;89582.51;;;28.45;34.03828
80869;BME280;70295;40.182;44.498;2023-07-08T03:34:31;89585.28;;;28.58;33.80684
80869;BME280;70295;40.182;44.498;2023-07-08T03:36:31;89584.44;;;28.73;33.66719
80869;BME280;70295;40.182;44.498;2023-07-08T03:38:31;89583.08;;;28.85;33.12129
80869;BME280;70295;40.182;44.498;2023-07-08T03:40:31;89582.23;;;28.94;32.8957
80869;BME280;70295;40.182;44.498;2023-07-08T03:42:31;89585.49;;;29.05;32.84687
80869;BME280;70295;40.182;44.498;2023-07-08T03:44:31;89583.92;;;29.2;32.59101
80869;BME280;70295;40.182;44.498;2023-07-08T03:46:31;89582.33;;;29.34;32.23066
80869;BME280;70295;40.182;44.498;2023-07-08T03:48:31;89580.3;;;29.49;32.09101
80869;BME280;70295;40.182;44.498;2023-07-08T03:50:31;89580.25;;;29.65;31.77851
80869;BME280;70295;40.182;44.498;2023-07-08T03:52:31;89578.77;;;29.77;31.40449
80869;BME280;70295;40.182;44.498;2023-07-08T03:54:31;89581.54;;;29.9;31.22871
80869;BME280;70295;40.182;44.498;2023-07-08T03:56:31;89577.02;;;30.04;30.96992
80869;BME280;70295;40.182;44.498;2023-07-08T03:58:31;89574.27;;;30.15;30.60664
80869;BME280;70295;40.182;44.498;2023-07-08T04:00:31;89571.94;;;30.2;30.34297
80869;BME280;70295;40.182;44.498;2023-07-08T04:02:31;89578.38;;;30.25;30.25312
80869;BME280;70295;40.182;44.498;2023-07-08T04:04:31;89582.53;;;30.35;30.03926
80869;BME280;70295;40.182;44.498;2023-07-08T04:06:31;89580.42;;;30.37;29.6457
80869;BME280;70295;40.182;44.498;2023-07-08T04:08:31;89581.48;;;30.34;29.39961
80869;BME280;70295;40.182;44.498;2023-07-08T04:10:31;89577.41;;;30.42;29.27656
80869;BME280;70295;40.182;44.498;2023-07-08T04:12:31;89577.17;;;30.55;28.99531
80869;BME280;70295;40.182;44.498;2023-07-08T04:14:31;89574.16;;;30.68;28.7834
80869;BME280;70295;40.182;44.498;2023-07-08T04:16:33;89575.25;;;30.82;28.32637
80869;BME280;70295;40.182;44.498;2023-07-08T04:18:32;89576.68;;;30.96;28.06855
80869;BME280;70295;40.182;44.498;2023-07-08T04:20:31;89575.23;;;31.02;28.18769
80869;BME280;70295;40.182;44.498;2023-07-08T04:22:31;89570.69;;;31.06;28.03926
80869;BME280;70295;40.182;44.498;2023-07-08T04:24:31;89570.39;;;31.11;27.77461
80869;BME280;70295;40.182;44.498;2023-07-08T04:26:31;89570.47;;;31.14;27.64766
80869;BME280;70295;40.182;44.498;2023-07-08T04:28:31;89567.45;;;31.09;27.71504
80869;BME280;70295;40.182;44.498;2023-07-08T04:30:32;89571.27;;;31.08;27.39961
80869;BME280;70295;40.182;44.498;2023-07-08T04:32:31;89566.44;;;30.98;27.27656
80869;BME280;70295;40.182;44.498;2023-07-08T04:34:31;89564.09;;;31.03;27.33906
80869;BME280;70295;40.182;44.498;2023-07-08T04:36:31;89564.32;;;31.19;27.20918
80869;BME280;70295;40.182;44.498;2023-07-08T04:38:31;89566.48;;;31.34;26.93769
80869;BME280;70295;40.182;44.498;2023-07-08T04:40:31;89565.62;;;31.46;26.66523
80869;BME280;70295;40.182;44.498;2023-07-08T04:42:31;89563.06;;;31.57;26.59101
80869;BME280;70295;40.182;44.498;2023-07-08T04:44:31;89559.2;;;31.73;26.47285
80869;BME280;70295;40.182;44.498;2023-07-08T04:48:31;89555.42;;;31.87;25.89668
80869;BME280;70295;40.182;44.498;2023-07-08T04:50:31;89559.2;;;31.87;26.05976
80869;BME280;70295;40.182;44.498;2023-07-08T04:52:31;89555.91;;;31.91;26.01582
80869;BME280;70295;40.182;44.498;2023-07-08T04:54:31;89552.08;;;32.03;25.92988
80869;BME280;70295;40.182;44.498;2023-07-08T04:58:31;89550.5;;;32.29;25.76973
80869;BME280;70295;40.182;44.498;2023-07-08T05:00:32;89548.1;;;32.39;25.425
80869;BME280;70295;40.182;44.498;2023-07-08T05:02:31;89548.46;;;32.46;25.20723
80869;BME280;70295;40.182;44.498;2023-07-08T05:04:31;89543.19;;;32.48;25.14961
80869;BME280;70295;40.182;44.498;2023-07-08T05:06:32;89538.34;;;32.54;25.18769
80869;BME280;70295;40.182;44.498;2023-07-08T05:08:31;89536.48;;;32.59;24.92207
80869;BME280;70295;40.182;44.498;2023-07-08T05:10:31;89540.81;;;32.45;25.24141
80869;BME280;70295;40.182;44.498;2023-07-08T05:12:31;89529.05;;;32.28;26.01484
80869;BME280;70295;40.182;44.498;2023-07-08T05:14:31;89531.24;;;32.38;26.10273
80869;BME280;70295;40.182;44.498;2023-07-08T05:16:32;89525.25;;;32.54;25.98359
80869;BME280;70295;40.182;44.498;2023-07-08T05:18:31;89520.8;;;32.71;25.84199
80869;BME280;70295;40.182;44.498;2023-07-08T05:20:31;89511.74;;;32.81;25.59004
80869;BME280;70295;40.182;44.498;2023-07-08T05:22:31;89510.94;;;32.86;25.59394
80869;BME280;70295;40.182;44.498;2023-07-08T05:24:31;89509.39;;;33;25.36738
80869;BME280;70295;40.182;44.498;2023-07-08T05:26:31;89505.36;;;33.16;25.15351
80869;BME280;70295;40.182;44.498;2023-07-08T05:28:31;89504.81;;;33.27;24.98457
80869;BME280;70295;40.182;44.498;2023-07-08T05:30:31;89500.59;;;33.38;24.81562
80869;BME280;70295;40.182;44.498;2023-07-08T05:32:31;89496.59;;;33.47;24.66719
80869;BME280;70295;40.182;44.498;2023-07-08T05:34:31;89484.19;;;33.48;24.84394
80869;BME280;70295;40.182;44.498;2023-07-08T05:36:31;89484.41;;;33.47;25.19453
80869;BME280;70295;40.182;44.498;2023-07-08T05:38:31;89485.08;;;33.51;25.44355
80869;BME280;70295;40.182;44.498;2023-07-08T05:40:31;89474.08;;;33.63;25.59101
80869;BME280;70295;40.182;44.498;2023-07-08T05:42:31;89471.06;;;33.72;25.83027
80869;BME280;70295;40.182;44.498;2023-07-08T05:44:31;89471.73;;;33.83;25.7668
80869;BME280;70295;40.182;44.498;2023-07-08T05:46:31;89471.09;;;33.9;25.31367
80869;BME280;70295;40.182;44.498;2023-07-08T05:48:31;89467.48;;;33.94;25.08223
80869;BME280;70295;40.182;44.498;2023-07-08T05:50:31;89461.11;;;34.03;25.07539
80869;BME280;70295;40.182;44.498;2023-07-08T05:52:31;89461.27;;;34.11;25.24434
80869;BME280;70295;40.182;44.498;2023-07-08T05:54:31;89464.88;;;34.18;25.37715
80869;BME280;70295;40.182;44.498;2023-07-08T05:56:31;89459.78;;;34.28;24.91328
80869;BME280;70295;40.182;44.498;2023-07-08T05:58:31;89462.58;;;34.32;24.05879
80869;BME280;70295;40.182;44.498;2023-07-08T06:00:31;89452.27;;;34.21;23.70039
80869;BME280;70295;40.182;44.498;2023-07-08T06:02:32;89451.55;;;34.1;24.25703
80869;BME280;70295;40.182;44.498;2023-07-08T06:04:31;89452.68;;;34.07;24.19648
80869;BME280;70295;40.182;44.498;2023-07-08T06:06:31;89449.84;;;34.03;24.33516
80869;BME280;70295;40.182;44.498;2023-07-08T06:08:31;89445.49;;;34.08;24.51484
80869;BME280;70295;40.182;44.498;2023-07-08T06:10:31;89443.41;;;34.12;24.5041
80869;BME280;70295;40.182;44.498;2023-07-08T06:12:31;89441.41;;;34.18;24.59004
80869;BME280;70295;40.182;44.498;2023-07-08T06:14:31;89443.98;;;34.29;24.49043
80869;BME280;70295;40.182;44.498;2023-07-08T06:16:31;89446.5;;;34.32;24.35176
80869;BME280;70295;40.182;44.498;2023-07-08T06:18:31;89441.66;;;34.31;24.25703
80869;BME280;70295;40.182;44.498;2023-07-08T06:20:31;89439.92;;;34.35;24.30684
80869;BME280;70295;40.182;44.498;2023-07-08T06:22:31;89437.45;;;34.45;24.19453
80869;BME280;70295;40.182;44.498;2023-07-08T06:24:31;89432.95;;;34.5;24.26777
80869;BME280;70295;40.182;44.498;2023-07-08T06:26:31;89436.45;;;34.42;24.24043
80869;BME280;70295;40.182;44.498;2023-07-08T06:28:31;89434.69;;;34.29;24.45527
80869;BME280;70295;40.182;44.498;2023-07-08T06:30:31;89429.52;;;34.29;24.63203
80869;BME280;70295;40.182;44.498;2023-07-08T06:32:31;89422;;;34.33;24.8459
80869;BME280;70295;40.182;44.498;2023-07-08T06:34:31;89421.53;;;34.45;25.06367
80869;BME280;70295;40.182;44.498;2023-07-08T06:36:31;89415.47;;;34.57;25.03535
80869;BME280;70295;40.182;44.498;2023-07-08T06:38:31;89416.01;;;34.68;25.11152
80869;BME280;70295;40.182;44.498;2023-07-08T06:40:31;89414.21;;;34.75;24.95137
80869;BME280;70295;40.182;44.498;2023-07-08T06:42:31;89411.63;;;34.85;24.80488
80869;BME280;70295;40.182;44.498;2023-07-08T06:44:31;89413.17;;;34.97;24.55293
80869;BME280;70295;40.182;44.498;2023-07-08T06:46:31;89408.48;;;35.06;24.39277
80869;BME280;70295;40.182;44.498;2023-07-08T06:48:31;89407.44;;;35.14;24.2209
80869;BME280;70295;40.182;44.498;2023-07-08T06:50:31;89405.63;;;35.16;24.23359
80869;BME280;70295;40.182;44.498;2023-07-08T06:52:31;89403.25;;;35.16;24.29219
80869;BME280;70295;40.182;44.498;2023-07-08T06:54:31;89401.73;;;35.18;24.30488
80869;BME280;70295;40.182;44.498;2023-07-08T06:56:31;89396.3;;;35.2;24.1418
80869;BME280;70295;40.182;44.498;2023-07-08T06:58:31;89391.16;;;35.19;24.11836
80869;BME280;70295;40.182;44.498;2023-07-08T07:00:31;89391.25;;;35.22;24.0959
80869;BME280;70295;40.182;44.498;2023-07-08T07:02:31;89385.6;;;35.28;24.0168
80869;BME280;70295;40.182;44.498;2023-07-08T07:04:31;89379.88;;;35.33;23.90156
80869;BME280;70295;40.182;44.498;2023-07-08T07:06:31;89379.97;;;35.35;23.75019
80869;BME280;70295;40.182;44.498;2023-07-08T07:08:31;89375.21;;;35.29;23.82832
80869;BME280;70295;40.182;44.498;2023-07-08T07:10:31;89376.2;;;35.31;23.88887
80869;BME280;70295;40.182;44.498;2023-07-08T07:12:31;89366.3;;;35.33;23.99629
80869;BME280;70295;40.182;44.498;2023-07-08T07:14:31;89369.21;;;35.35;23.90254
80869;BME280;70295;40.182;44.498;2023-07-08T07:16:31;89372.61;;;35.32;23.63105
80869;BME280;70295;40.182;44.498;2023-07-08T07:18:31;89370.3;;;35.1;23.61836
80869;BME280;70295;40.182;44.498;2023-07-08T07:20:31;89368.08;;;34.95;23.88105
80869;BME280;70295;40.182;44.498;2023-07-08T07:22:31;89370.09;;;34.95;23.89277
80869;BME280;70295;40.182;44.498;2023-07-08T07:24:31;89366.23;;;34.95;23.83418
80869;BME280;70295;40.182;44.498;2023-07-08T07:26:31;89368.58;;;34.95;23.82246
80869;BME280;70295;40.182;44.498;2023-07-08T07:28:31;89363.7;;;34.88;23.79512
80869;BME280;70295;40.182;44.498;2023-07-08T07:30:31;89360.72;;;34.84;24.22773
80869;BME280;70295;40.182;44.498;2023-07-08T07:32:31;89358.94;;;34.82;24.20332
80869;BME280;70295;40.182;44.498;2023-07-08T07:34:31;89364.36;;;34.79;24.20137
80869;BME280;70295;40.182;44.498;2023-07-08T07:36:31;89361.72;;;34.64;24.12226
80869;BME280;70295;40.182;44.498;2023-07-08T07:38:32;89353.5;;;34.66;24.03047
80869;BME280;70295;40.182;44.498;2023-07-08T07:40:31;89348.8;;;34.67;24.21797
80869;BME280;70295;40.182;44.498;2023-07-08T07:42:31;89351.14;;;34.7;24.13789
80869;BME280;70295;40.182;44.498;2023-07-08T07:44:31;89348.23;;;34.73;23.82246
80869;BME280;70295;40.182;44.498;2023-07-08T07:46:31;89342.45;;;34.58;23.55586
80869;BME280;70295;40.182;44.498;2023-07-08T07:48:31;89342.48;;;34.41;23.56953
80869;BME280;70295;40.182;44.498;2023-07-08T07:50:31;89335.19;;;34.33;23.88301
80869;BME280;70295;40.182;44.498;2023-07-08T07:52:31;89340.47;;;34.23;24.24141
80869;BME280;70295;40.182;44.498;2023-07-08T07:54:31;89335.72;;;34.19;24.21601
80869;BME280;70295;40.182;44.498;2023-07-08T07:56:31;89332.13;;;34.26;24.41914
80869;BME280;70295;40.182;44.498;2023-07-08T07:58:31;89339.89;;;34.37;24.17793
80869;BME280;70295;40.182;44.498;2023-07-08T08:00:31;89333.69;;;34.41;23.71016
80869;BME280;70295;40.182;44.498;2023-07-08T08:02:31;89337.44;;;34.43;23.4416
80869;BME280;70295;40.182;44.498;2023-07-08T08:04:31;89333.19;;;34.43;23.32441
80869;BME280;70295;40.182;44.498;2023-07-08T08:06:31;89327.38;;;34.48;23.23262
80869;BME280;70295;40.182;44.498;2023-07-08T08:08:31;89328.41;;;34.52;23.31758
80869;BME280;70295;40.182;44.498;2023-07-08T08:10:31;89324.22;;;34.53;23.3293
80869;BME280;70295;40.182;44.498;2023-07-08T08:12:31;89323.55;;;34.55;23.51875
80869;BME280;70295;40.182;44.498;2023-07-08T08:14:31;89317.03;;;34.6;23.4748
80869;BME280;70295;40.182;44.498;2023-07-08T08:16:31;89316.58;;;34.69;23.4084
80869;BME280;70295;40.182;44.498;2023-07-08T08:18:31;89314.58;;;34.7;23.25605
80869;BME280;70295;40.182;44.498;2023-07-08T08:20:31;89309.21;;;34.68;23.25508
80869;BME280;70295;40.182;44.498;2023-07-08T08:22:31;89307.28;;;34.6;23.23848
80869;BME280;70295;40.182;44.498;2023-07-08T08:24:31;89303.1;;;34.5;23.37519
80869;BME280;70295;40.182;44.498;2023-07-08T08:26:31;89305.16;;;34.46;23.70137
80869;BME280;70295;40.182;44.498;2023-07-08T08:28:31;89301.99;;;34.5;23.66816
80869;BME280;70295;40.182;44.498;2023-07-08T08:30:31;89302.07;;;34.54;23.50703
80869;BME280;70295;40.182;44.498;2023-07-08T08:32:31;89302.69;;;34.55;23.49531
80869;BME280;70295;40.182;44.498;2023-07-08T08:34:31;89300.75;;;34.59;23.3332
80869;BME280;70295;40.182;44.498;2023-07-08T08:36:31;89298.69;;;34.58;23.35566
80869;BME280;70295;40.182;44.498;2023-07-08T08:38:31;89293.82;;;34.57;23.47187
80869;BME280;70295;40.182;44.498;2023-07-08T08:40:31;89290.28;;;34.62;23.3459
80869;BME280;70295;40.182;44.498;2023-07-08T08:44:32;89285.58;;;34.65;23.12422
80869;BME280;70295;40.182;44.498;2023-07-08T08:48:32;89276.38;;;34.5;23.23359
80869;BME280;70295;40.182;44.498;2023-07-08T08:50:32;89274.83;;;34.4;23.48652
80869;BME280;70295;40.182;44.498;2023-07-08T08:52:31;89269.77;;;34.3;23.37617
80869;BME280;70295;40.182;44.498;2023-07-08T08:54:31;89268.05;;;34.18;23.45234
80869;BME280;70295;40.182;44.498;2023-07-08T08:56:34;89269.69;;;34.17;23.4748
80869;BME280;70295;40.182;44.498;2023-07-08T09:08:31;89243.42;;;34.34;23.40156
80869;BME280;70295;40.182;44.498;2023-07-08T09:12:31;89240.48;;;34.41;23.52266
80869;BME280;70295;40.182;44.498;2023-07-08T09:14:33;89234.76;;;34.45;23.51387
80869;BME280;70295;40.182;44.498;2023-07-08T09:20:31;89231.89;;;34.48;23.15059
80869;BME280;70295;40.182;44.498;2023-07-08T09:24:35;89219.47;;;34.51;23.22285
80869;BME280;70295;40.182;44.498;2023-07-08T09:26:31;89216.77;;;34.5;23.18672
80869;BME280;70295;40.182;44.498;2023-07-08T09:30:31;89211.53;;;34.52;23.23555
80869;BME280;70295;40.182;44.498;2023-07-08T09:32:31;89208.67;;;34.52;23.02363
80869;BME280;70295;40.182;44.498;2023-07-08T09:36:31;89203.36;;;34.51;23.22285
80869;BME280;70295;40.182;44.498;2023-07-08T09:38:31;89200.25;;;34.52;23.02363
80869;BME280;70295;40.182;44.498;2023-07-08T09:40:31;89189.93;;;34.54;22.90644
80869;BME280;70295;40.182;44.498;2023-07-08T09:42:32;89188.31;;;34.53;22.4123
80869;BME280;70295;40.182;44.498;2023-07-08T09:44:31;89179.46;;;34.5;22.00019
80869;BME280;70295;40.182;44.498;2023-07-08T09:46:40;89176.19;;;34.47;21.92695
80869;BME280;70295;40.182;44.498;2023-07-08T09:48:36;89160.27;;;34.45;22.06758
80869;BME280;70295;40.182;44.498;2023-07-08T09:50:31;89172.78;;;34.46;22.0793
80869;BME280;70295;40.182;44.498;2023-07-08T09:52:31;89179.07;;;34.41;21.66621
80869;BME280;70295;40.182;44.498;2023-07-08T09:54:31;89170.52;;;34.36;20.98164
80869;BME280;70295;40.182;44.498;2023-07-08T09:56:31;89169.28;;;34.37;20.84101
80869;BME280;70295;40.182;44.498;2023-07-08T09:58:34;89156.04;;;34.39;20.75996
80869;BME280;70295;40.182;44.498;2023-07-08T10:04:31;89153.54;;;34.47;20.71699
80869;BME280;70295;40.182;44.498;2023-07-08T10:06:32;89158.13;;;34.51;20.58906
80869;BME280;70295;40.182;44.498;2023-07-08T10:10:32;89140.19;;;34.37;20.21894
80869;BME280;70295;40.182;44.498;2023-07-08T10:12:31;89144.63;;;34.36;20.19453
80869;BME280;70295;40.182;44.498;2023-07-08T10:14:36;89139.99;;;34.35;20.02949
80869;BME280;70295;40.182;44.498;2023-07-08T10:16:32;89150.73;;;34.34;19.91133
80869;BME280;70295;40.182;44.498;2023-07-08T10:18:31;89127.49;;;34.27;19.96699
80869;BME280;70295;40.182;44.498;2023-07-08T10:26:32;89116.25;;;34.11;19.6418
80869;BME280;70295;40.182;44.498;2023-07-08T10:30:44;89119.56;;;34.18;19.98555
80869;BME280;70295;40.182;44.498;2023-07-08T10:32:35;89114.15;;;34.18;19.91621
80869;BME280;70295;40.182;44.498;2023-07-08T10:40:34;89082.27;;;34.34;20.26387
80869;BME280;70295;40.182;44.498;2023-07-08T10:48:38;89091;;;34.44;20.1623
80869;BME280;70295;40.182;44.498;2023-07-08T10:52:37;89076;;;34.51;20.2834
80869;BME280;70295;40.182;44.498;2023-07-08T10:56:36;89069.58;;;34.52;20.33125
80869;BME280;70295;40.182;44.498;2023-07-08T11:03:20;89069.42;;;34.52;20.49531
80869;BME280;70295;40.182;44.498;2023-07-08T11:04:35;89063.56;;;34.53;20.46113
80869;BME280;70295;40.182;44.498;2023-07-08T11:06:37;89049.17;;;34.51;20.44844
80869;BME280;70295;40.182;44.498;2023-07-08T11:09:16;89051.33;;;34.5;20.65937
80869;BME280;70295;40.182;44.498;2023-07-08T11:22:31;89053.76;;;34.49;20.35273
80869;BME280;70295;40.182;44.498;2023-07-08T11:28:31;89050.48;;;34.47;20.3293
80869;BME280;70295;40.182;44.498;2023-07-08T11:30:31;89046.77;;;34.5;20.36543
80869;BME280;70295;40.182;44.498;2023-07-08T11:32:31;89046.85;;;34.54;20.35566
80869;BME280;70295;40.182;44.498;2023-07-08T11:34:31;89045.35;;;34.57;20.25117